Time;durP1;ratioP1;P1;durP2;ratioP2;P2;SDS_P1;SDS_P2;PMS_P1;PMS_P2;Temp;Humidity;BMP_temperature;BMP_pressure;BME280_temperature;BME280_humidity;BME280_pressure;Samples;Min_cycle;Max_cycle;Signal;HPM_P1;HPM_P2
2022/05/07 00:01:03;;;;;;;94.95;54.80;;;10.20;99.90;;;;;;5094597;28;20039;-42
2022/05/07 00:03:29;;;;;;;77.10;48.55;;;10.30;99.90;;;;;;5092570;28;20050;-41
2022/05/07 00:05:54;;;;;;;52.88;37.95;;;12.30;99.90;;;;;;5093514;28;20048;-41
2022/05/07 00:08:22;;;;;;;48.70;34.30;;;10.80;99.90;;;;;;5093131;28;20575;-44
2022/05/07 00:10:48;;;;;;;47.53;33.92;;;12.00;99.90;;;;;;5094390;28;20035;-42
2022/05/07 00:13:13;;;;;;;47.63;34.10;;;11.00;99.90;;;;;;5093750;28;20070;-42
2022/05/07 00:15:39;;;;;;;48.95;33.20;;;11.20;99.90;;;;;;5093487;28;20027;-42
2022/05/07 00:18:06;;;;;;;41.72;29.63;;;10.10;99.90;;;;;;5094629;28;20142;-44
2022/05/07 00:20:35;;;;;;;46.08;32.15;;;10.20;99.90;;;;;;5094085;28;20042;-42
2022/05/07 00:23:01;;;;;;;48.28;33.85;;;10.10;99.90;;;;;;5094473;28;20027;-42
2022/05/07 00:25:29;;;;;;;39.38;31.00;;;10.10;99.90;;;;;;5093208;28;20043;-42
2022/05/07 00:27:55;;;;;;;44.80;32.28;;;10.10;99.90;;;;;;5074867;28;20855;-42
2022/05/07 00:30:21;;;;;;;47.75;33.65;;;10.20;99.90;;;;;;5093714;28;20035;-44
2022/05/07 00:32:47;;;;;;;44.03;32.50;;;9.90;99.90;;;;;;5093865;28;20043;-42
2022/05/07 00:35:13;;;;;;;46.08;33.13;;;10.70;99.90;;;;;;5092334;28;20039;-41
2022/05/07 00:37:38;;;;;;;49.80;35.05;;;11.60;99.90;;;;;;5093644;28;20046;-41
2022/05/07 00:40:08;;;;;;;51.72;35.70;;;10.80;99.90;;;;;;5093207;28;20055;-42
2022/05/07 00:42:36;;;;;;;49.80;36.05;;;10.20;99.90;;;;;;5093477;28;20063;-43
2022/05/07 00:45:02;;;;;;;52.67;36.83;;;10.30;99.90;;;;;;5093371;28;20447;-43
2022/05/07 00:47:31;;;;;;;53.17;36.25;;;10.10;99.90;;;;;;5091652;28;20092;-45
2022/05/07 00:51:33;;;;;;;60.75;41.88;;;10.80;99.90;;;;;;5092916;28;20059;-42
2022/05/07 00:52:46;;;;;;;50.47;35.10;;;11.60;99.90;;;;;;5093169;28;20614;-42
2022/05/07 00:55:13;;;;;;;53.28;35.25;;;10.30;99.90;;;;;;5093678;28;20039;-46
2022/05/07 00:57:40;;;;;;;60.03;37.55;;;10.30;99.90;;;;;;5092708;28;20123;-46
2022/05/07 01:00:07;;;;;;;53.90;36.03;;;10.50;99.90;;;;;;5094102;28;20102;-43
2022/05/07 01:02:33;;;;;;;55.60;38.35;;;10.30;99.90;;;;;;5094192;28;20042;-45
2022/05/07 01:04:58;;;;;;;52.33;34.63;;;11.30;99.90;;;;;;5093813;28;20044;-43
2022/05/07 01:07:24;;;;;;;65.32;40.33;;;10.50;99.90;;;;;;5093811;28;20514;-43
2022/05/07 01:09:50;;;;;;;63.47;40.70;;;12.60;99.90;;;;;;5092187;28;20050;-43
2022/05/07 01:12:18;;;;;;;69.82;44.13;;;10.60;99.90;;;;;;5094251;28;20043;-43
2022/05/07 01:14:44;;;;;;;60.30;40.55;;;10.70;99.90;;;;;;5093943;28;20130;-42
2022/05/07 01:17:09;;;;;;;69.43;43.00;;;10.60;99.90;;;;;;5092901;28;20038;-42
2022/05/07 01:19:37;;;;;;;59.08;40.90;;;11.60;99.90;;;;;;5093862;28;20130;-47
2022/05/07 01:22:04;;;;;;;60.67;41.55;;;10.60;99.90;;;;;;5092985;28;20044;-42
2022/05/07 01:24:29;;;;;;;62.25;43.17;;;11.80;99.90;;;;;;5089885;28;20239;-45
2022/05/07 01:26:57;;;;;;;65.63;43.17;;;10.70;99.90;;;;;;5091247;28;20035;-44
2022/05/07 01:29:24;;;;;;;64.80;43.65;;;12.70;99.90;;;;;;5092742;28;20058;-45
2022/05/07 01:31:50;;;;;;;61.10;41.05;;;11.10;99.90;;;;;;5092594;28;20046;-47
2022/05/07 01:34:16;;;;;;;55.33;40.25;;;11.00;99.90;;;;;;5092877;28;20043;-42
2022/05/07 01:36:41;;;;;;;65.38;43.13;;;12.20;99.90;;;;;;5092004;28;20061;-43
2022/05/07 01:39:07;;;;;;;66.07;42.30;;;10.70;99.90;;;;;;5093794;28;20043;-45
2022/05/07 01:41:32;;;;;;;55.60;40.40;;;10.80;99.90;;;;;;5091664;28;20496;-44
2022/05/07 01:44:00;;;;;;;60.63;40.33;;;11.90;99.90;;;;;;5093229;28;20042;-43
2022/05/07 01:49:10;;;;;;;59.58;40.40;;;11.20;99.90;;;;;;5092744;28;20059;-42
2022/05/07 01:51:36;;;;;;;59.33;41.20;;;10.90;99.90;;;;;;5092236;28;20047;-42
2022/05/07 01:54:01;;;;;;;54.95;39.65;;;11.50;99.90;;;;;;5092345;28;20031;-43
2022/05/07 01:56:27;;;;;;;59.17;41.75;;;11.10;99.90;;;;;;5092502;28;20040;-44
2022/05/07 01:58:53;;;;;;;61.88;43.05;;;11.20;99.90;;;;;;5092058;28;20050;-46
2022/05/07 02:01:20;;;;;;;51.78;39.70;;;12.00;99.90;;;;;;5096330;28;20154;-43
2022/05/07 02:03:47;;;;;;;58.33;43.10;;;12.90;99.90;;;;;;5096849;28;20080;-44
2022/05/07 02:06:13;;;;;;;62.42;43.10;;;11.20;99.90;;;;;;5095293;28;20039;-47
2022/05/07 02:08:39;;;;;;;55.03;40.45;;;11.10;99.90;;;;;;5098063;28;20845;-43
2022/05/07 02:11:08;;;;;;;56.67;40.50;;;11.10;99.90;;;;;;5096522;28;20031;-44
2022/05/07 02:13:33;;;;;;;58.80;41.38;;;11.30;99.90;;;;;;5096823;28;20499;-41
2022/05/07 02:16:01;;;;;;;56.95;40.45;;;11.10;99.90;;;;;;5096177;28;20084;-42
2022/05/07 02:18:27;;;;;;;57.15;39.72;;;13.10;99.90;;;;;;5096531;28;20046;-42
2022/05/07 02:20:53;;;;;;;55.83;40.15;;;11.10;99.90;;;;;;5097761;28;20043;-42
2022/05/07 02:23:21;;;;;;;51.53;37.47;;;11.20;99.90;;;;;;5098063;27;20142;-43
2022/05/07 02:25:46;;;;;;;49.67;38.60;;;11.00;99.90;;;;;;5096815;28;20036;-44
2022/05/07 02:28:12;;;;;;;51.25;37.78;;;11.00;99.90;;;;;;5095859;28;20047;-42
2022/05/07 02:30:38;;;;;;;57.55;39.25;;;11.00;99.90;;;;;;5097946;28;20103;-43
2022/05/07 02:33:03;;;;;;;51.60;39.38;;;11.10;99.90;;;;;;5095596;28;20040;-42
2022/05/07 02:35:29;;;;;;;54.33;38.30;;;11.10;99.90;;;;;;5095792;28;20416;-41
2022/05/07 02:37:55;;;;;;;54.53;39.53;;;11.00;99.90;;;;;;5096121;27;20043;-43
2022/05/07 02:40:21;;;;;;;52.38;39.25;;;11.90;99.90;;;;;;5096401;28;20056;-41
2022/05/07 02:42:46;;;;;;;50.17;38.83;;;11.20;99.90;;;;;;5095925;28;20043;-43
2022/05/07 02:45:14;;;;;;;52.15;38.75;;;11.40;99.90;;;;;;5096178;28;20043;-42
2022/05/07 02:47:43;;;;;;;55.03;39.20;;;11.90;99.90;;;;;;5094234;28;20050;-42
2022/05/07 02:50:11;;;;;;;55.80;38.40;;;11.40;99.90;;;;;;5095775;28;20131;-42
2022/05/07 02:52:38;;;;;;;54.50;38.95;;;13.20;99.90;;;;;;5095766;28;20108;-41
2022/05/07 02:55:05;;;;;;;45.03;36.60;;;12.20;99.90;;;;;;5096387;28;20407;-43
2022/05/07 02:57:31;;;;;;;52.92;37.95;;;11.10;99.90;;;;;;5095716;28;20043;-43
2022/05/07 02:59:57;;;;;;;48.15;38.08;;;11.00;99.90;;;;;;5095908;28;20046;-42
2022/05/07 03:02:25;;;;;;;47.38;37.30;;;11.30;99.90;;;;;;5095213;28;20103;-43
2022/05/07 03:04:53;;;;;;;51.38;37.53;;;11.00;99.90;;;;;;5094759;28;20070;-41
2022/05/07 03:07:18;;;;;;;53.10;38.55;;;11.70;99.90;;;;;;5096109;28;20059;-43
2022/05/07 03:09:46;;;;;;;51.72;38.78;;;10.60;99.90;;;;;;5095050;28;20082;-42
2022/05/07 03:12:12;;;;;;;51.90;37.92;;;11.50;99.90;;;;;;5094757;28;20043;-41
2022/05/07 03:14:38;;;;;;;46.88;36.45;;;11.70;99.90;;;;;;5096069;28;20048;-42
2022/05/07 03:17:04;;;;;;;52.55;36.47;;;10.70;99.90;;;;;;5096308;28;20778;-42
2022/05/07 03:19:31;;;;;;;48.22;36.95;;;10.70;99.90;;;;;;5094673;28;20040;-42
2022/05/07 03:21:57;;;;;;;51.10;39.28;;;10.60;99.90;;;;;;5095610;28;20035;-43
2022/05/07 03:24:23;;;;;;;49.95;37.17;;;10.60;99.90;;;;;;5094837;28;20049;-42
2022/05/07 03:26:50;;;;;;;51.42;36.92;;;10.60;99.90;;;;;;5094575;28;20044;-42
2022/05/07 03:29:16;;;;;;;51.63;38.20;;;10.60;99.90;;;;;;5095431;28;20082;-43
2022/05/07 03:31:42;;;;;;;53.85;38.75;;;11.10;99.90;;;;;;5095347;28;20476;-42
2022/05/07 03:34:08;;;;;;;44.83;35.80;;;12.80;99.90;;;;;;5095763;28;20134;-42
2022/05/07 03:36:34;;;;;;;41.25;33.13;;;10.60;99.90;;;;;;5093659;28;20112;-43
2022/05/07 03:39:00;;;;;;;40.22;33.33;;;10.70;99.90;;;;;;5095816;28;20044;-42
2022/05/07 03:41:26;;;;;;;45.45;33.67;;;10.50;99.90;;;;;;5094975;28;20051;-43
2022/05/07 03:43:52;;;;;;;39.25;31.25;;;11.20;99.90;;;;;;5096512;28;20093;-42
2022/05/07 03:46:18;;;;;;;44.72;34.28;;;10.40;99.90;;;;;;5095277;28;20587;-42
2022/05/07 03:48:44;;;;;;;42.75;31.17;;;11.00;99.90;;;;;;5094553;27;20060;-43
2022/05/07 03:51:09;;;;;;;44.33;31.95;;;10.50;99.90;;;;;;5094746;28;20096;-44
2022/05/07 03:53:39;;;;;;;43.28;33.53;;;10.40;99.90;;;;;;5095010;28;20046;-46
2022/05/07 03:56:07;;;;;;;49.20;36.40;;;11.50;99.90;;;;;;5094761;28;20531;-42
2022/05/07 03:58:34;;;;;;;47.33;37.58;;;10.60;99.90;;;;;;5092814;28;20572;-47
2022/05/07 04:01:00;;;;;;;48.90;34.85;;;10.30;99.90;;;;;;5094804;28;20040;-45
2022/05/07 04:03:29;;;;;;;47.70;36.35;;;10.60;99.90;;;;;;5092813;28;20441;-42
2022/05/07 04:05:55;;;;;;;49.35;35.70;;;10.60;99.90;;;;;;5095728;28;20122;-46
2022/05/07 04:08:21;;;;;;;43.10;34.75;;;10.40;99.90;;;;;;5095631;28;20054;-46
2022/05/07 04:10:47;;;;;;;45.42;36.67;;;10.70;99.90;;;;;;5093429;28;20043;-43
2022/05/07 04:13:15;;;;;;;41.58;34.72;;;10.50;99.90;;;;;;5094900;28;20167;-43
2022/05/07 04:15:43;;;;;;;43.60;32.45;;;10.50;99.90;;;;;;5094874;28;20047;-41
2022/05/07 04:18:11;;;;;;;50.85;35.78;;;10.40;99.90;;;;;;5092759;28;20032;-43
2022/05/07 04:20:37;;;;;;;45.63;35.97;;;10.50;99.90;;;;;;5092492;28;20659;-45
2022/05/07 04:23:03;;;;;;;44.10;34.95;;;10.70;99.90;;;;;;5092967;28;20040;-46
2022/05/07 04:25:29;;;;;;;50.10;38.92;;;10.60;99.90;;;;;;5092629;28;20089;-47
2022/05/07 04:27:55;;;;;;;47.47;37.75;;;10.80;99.90;;;;;;5093650;28;20491;-44
2022/05/07 04:30:22;;;;;;;50.90;38.63;;;10.60;99.90;;;;;;5092909;28;20150;-44
2022/05/07 04:32:48;;;;;;;47.42;36.60;;;10.40;99.90;;;;;;5094251;28;20776;-42
2022/05/07 04:35:14;;;;;;;50.28;37.85;;;10.40;99.90;;;;;;5094145;28;20071;-47
2022/05/07 04:37:40;;;;;;;50.88;39.78;;;11.60;99.90;;;;;;5092492;28;20603;-43
2022/05/07 04:40:06;;;;;;;45.08;36.47;;;10.60;99.90;;;;;;5094747;28;20034;-43
2022/05/07 04:42:32;;;;;;;45.75;37.50;;;10.70;99.90;;;;;;5093118;28;20043;-46
2022/05/07 04:44:57;;;;;;;48.45;37.17;;;10.80;99.90;;;;;;5093466;28;20401;-45
2022/05/07 04:47:23;;;;;;;45.53;36.40;;;10.80;99.90;;;;;;5093748;28;20100;-43
2022/05/07 04:49:49;;;;;;;50.25;40.00;;;10.80;99.90;;;;;;5093071;28;20043;-42
2022/05/07 04:52:15;;;;;;;49.95;37.20;;;10.90;99.90;;;;;;5092793;28;20043;-44
2022/05/07 04:54:41;;;;;;;44.55;36.17;;;10.80;99.90;;;;;;5094043;28;20043;-47
2022/05/07 04:57:08;;;;;;;48.88;38.22;;;12.90;99.90;;;;;;5093945;28;20047;-46
2022/05/07 04:59:35;;;;;;;43.60;36.22;;;10.70;99.90;;;;;;5093494;28;20080;-42
2022/05/07 05:02:00;;;;;;;43.85;35.92;;;11.00;99.90;;;;;;5093339;28;20043;-43
2022/05/07 05:04:28;;;;;;;46.70;36.03;;;11.80;99.90;;;;;;5094096;28;20046;-46
2022/05/07 05:06:53;;;;;;;44.15;36.35;;;11.10;99.90;;;;;;5092975;28;20039;-43
2022/05/07 05:09:19;;;;;;;51.20;37.67;;;11.10;99.90;;;;;;5093276;28;20047;-43
2022/05/07 05:11:45;;;;;;;45.05;37.38;;;11.40;99.90;;;;;;5092898;28;21625;-45
2022/05/07 05:16:55;;;;;;;45.50;36.33;;;11.10;99.90;;;;;;5092553;28;20043;-43
2022/05/07 05:19:21;;;;;;;51.30;37.60;;;11.70;99.90;;;;;;5092549;28;20069;-46
2022/05/07 05:21:46;;;;;;;47.80;38.38;;;11.30;99.90;;;;;;5091968;28;20127;-44
2022/05/07 05:24:12;;;;;;;49.72;37.03;;;11.30;99.90;;;;;;5092140;28;20043;-43
2022/05/07 05:26:38;;;;;;;48.60;37.50;;;12.70;99.90;;;;;;5092489;28;20142;-46
2022/05/07 05:29:04;;;;;;;43.63;36.22;;;11.30;99.90;;;;;;5092066;28;20036;-41
2022/05/07 05:31:30;;;;;;;42.13;35.17;;;11.60;99.90;;;;;;5091538;28;20035;-41
2022/05/07 05:33:57;;;;;;;47.33;37.67;;;11.90;99.90;;;;;;5091600;28;20433;-42
2022/05/07 05:36:26;;;;;;;48.03;36.95;;;13.00;99.90;;;;;;5091598;28;20046;-45
2022/05/07 05:38:52;;;;;;;43.35;36.63;;;13.70;99.90;;;;;;5091894;28;20040;-43
2022/05/07 05:41:19;;;;;;;45.03;37.10;;;13.00;99.90;;;;;;5092299;28;20100;-43
2022/05/07 05:43:46;;;;;;;46.70;37.85;;;11.90;99.90;;;;;;5091636;28;20043;-44
2022/05/07 05:46:12;;;;;;;47.05;37.35;;;11.90;99.90;;;;;;5092479;28;20108;-42
2022/05/07 05:48:37;;;;;;;46.05;36.78;;;11.80;99.90;;;;;;5091094;28;20051;-44
2022/05/07 05:51:04;;;;;;;45.10;34.95;;;12.40;99.90;;;;;;5092451;28;20078;-41
2022/05/07 05:53:33;;;;;;;46.85;36.35;;;12.60;99.90;;;;;;5091764;28;20043;-43
2022/05/07 05:56:00;;;;;;;43.42;35.83;;;12.50;99.90;;;;;;5090599;28;20028;-42
2022/05/07 05:58:32;;;;;;;41.47;33.85;;;13.20;99.90;;;;;;5092747;28;20054;-45
2022/05/07 06:01:02;;;;;;;44.33;34.22;;;14.10;99.90;;;;;;5091445;28;20063;-43
2022/05/07 06:03:30;;;;;;;40.30;33.97;;;13.00;99.90;;;;;;5086000;28;20071;-42
2022/05/07 06:05:56;;;;;;;40.72;34.03;;;13.00;99.90;;;;;;5091958;28;20507;-43
2022/05/07 06:08:22;;;;;;;43.65;33.88;;;13.20;99.90;;;;;;5093023;28;20189;-42
2022/05/07 06:10:52;;;;;;;37.55;33.08;;;13.50;99.90;;;;;;5092609;28;20039;-45
2022/05/07 06:13:18;;;;;;;37.30;31.35;;;13.80;99.90;;;;;;5091487;28;20055;-45
2022/05/07 06:15:45;;;;;;;38.70;32.63;;;13.10;99.90;;;;;;5092302;28;20036;-43
2022/05/07 06:18:11;;;;;;;37.67;31.17;;;13.20;99.90;;;;;;5093087;28;20032;-42
2022/05/07 06:20:37;;;;;;;35.58;31.40;;;13.60;99.90;;;;;;5091171;28;20429;-42
2022/05/07 06:23:02;;;;;;;31.45;27.98;;;15.10;99.90;;;;;;5092281;28;20605;-46
2022/05/07 06:28:14;;;;;;;34.45;28.98;;;14.10;99.90;;;;;;5091953;28;20059;-44
2022/05/07 06:30:42;;;;;;;33.33;27.80;;;16.20;99.90;;;;;;5090015;28;20491;-43
2022/05/07 06:33:08;;;;;;;33.13;28.73;;;16.00;99.90;;;;;;5089143;28;20096;-46
2022/05/07 06:35:33;;;;;;;31.10;27.75;;;14.30;99.90;;;;;;5089999;28;20043;-46
2022/05/07 06:37:59;;;;;;;29.63;25.88;;;14.50;99.90;;;;;;5092865;28;20694;-46
2022/05/07 06:40:25;;;;;;;29.58;24.92;;;14.40;99.90;;;;;;5091918;28;20075;-43
2022/05/07 06:42:51;;;;;;;28.55;25.02;;;14.90;99.90;;;;;;5090053;28;20036;-45
2022/05/07 06:45:18;;;;;;;32.08;25.45;;;15.00;99.90;;;;;;5092981;28;20043;-44
2022/05/07 06:47:44;;;;;;;32.03;24.48;;;15.30;99.90;;;;;;5093852;28;20039;-45
2022/05/07 06:50:10;;;;;;;27.20;23.20;;;16.20;99.90;;;;;;5096350;28;20229;-48
2022/05/07 06:52:45;;;;;;;24.45;21.75;;;17.30;99.90;;;;;;5095105;28;20146;-46
2022/05/07 06:55:18;;;;;;;23.67;19.85;;;18.50;99.90;;;;;;5096422;28;20036;-46
2022/05/07 06:57:45;;;;;;;25.23;21.45;;;19.10;99.90;;;;;;5095304;28;20512;-48
2022/05/07 07:00:13;;;;;;;21.55;18.70;;;19.60;99.90;;;;;;5096125;28;20104;-47
2022/05/07 07:02:39;;;;;;;23.10;20.38;;;20.50;99.90;;;;;;5095306;28;20114;-48
2022/05/07 07:05:06;;;;;;;22.65;20.17;;;21.00;99.90;;;;;;5095228;28;20508;-49
2022/05/07 07:07:32;;;;;;;21.40;18.90;;;21.40;99.90;;;;;;5093158;28;20201;-45
2022/05/07 07:09:59;;;;;;;23.85;18.65;;;22.10;99.90;;;;;;5095035;28;20039;-45
2022/05/07 07:12:25;;;;;;;22.45;20.15;;;21.90;99.90;;;;;;5093891;28;20466;-44
2022/05/07 07:14:51;;;;;;;24.60;20.95;;;21.60;99.90;;;;;;5090963;28;20048;-45
2022/05/07 07:17:17;;;;;;;22.60;19.48;;;20.90;99.90;;;;;;5096691;28;20684;-45
2022/05/07 07:19:44;;;;;;;21.85;18.63;;;20.50;99.90;;;;;;5095526;28;20329;-48
2022/05/07 07:22:11;;;;;;;20.70;18.35;;;20.30;99.90;;;;;;5094809;28;21222;-45
2022/05/07 07:24:38;;;;;;;22.80;20.38;;;19.70;99.90;;;;;;5094927;28;20112;-46
2022/05/07 07:27:05;;;;;;;25.73;20.17;;;19.30;99.90;;;;;;5094951;28;20386;-46
2022/05/07 07:29:31;;;;;;;23.88;21.38;;;18.70;99.90;;;;;;5094685;28;20068;-44
2022/05/07 07:31:57;;;;;;;23.02;19.85;;;18.30;99.90;;;;;;5094493;28;20532;-43
2022/05/07 07:34:23;;;;;;;25.35;19.63;;;18.10;99.90;;;;;;5095086;28;20050;-46
2022/05/07 07:36:52;;;;;;;22.42;20.10;;;17.90;99.90;;;;;;5095241;28;20028;-48
2022/05/07 07:39:20;;;;;;;20.40;18.23;;;17.80;99.90;;;;;;5093289;28;20104;-46
2022/05/07 07:41:46;;;;;;;23.02;20.17;;;17.80;99.90;;;;;;5093536;28;20122;-45
2022/05/07 07:44:12;;;;;;;26.73;21.58;;;17.60;99.90;;;;;;5075918;28;20449;-47
2022/05/07 07:49:24;;;;;;;27.88;22.80;;;17.80;99.90;;;;;;5094762;28;20044;-47
2022/05/07 07:51:50;;;;;;;26.75;23.23;;;18.00;99.90;;;;;;5094509;28;20105;-47
2022/05/07 07:54:16;;;;;;;27.85;22.38;;;18.20;99.90;;;;;;5094655;28;20058;-48
2022/05/07 07:56:44;;;;;;;25.33;22.42;;;20.20;99.90;;;;;;5092654;28;20047;-44
2022/05/07 07:59:13;;;;;;;28.92;23.80;;;18.30;99.90;;;;;;5094752;28;20043;-47
2022/05/07 08:01:38;;;;;;;31.42;26.10;;;18.50;99.90;;;;;;5091806;28;20047;-44
2022/05/07 08:04:08;;;;;;;31.15;24.15;;;21.10;99.90;;;;;;5093732;28;20511;-49
2022/05/07 08:06:33;;;;;;;25.38;21.33;;;18.40;99.90;;;;;;5093838;28;20043;-47
2022/05/07 08:11:46;;;;;;;36.33;27.02;;;17.70;99.90;;;;;;5094676;28;20051;-48
2022/05/07 08:14:13;;;;;;;30.10;24.45;;;17.20;99.90;;;;;;5093447;28;20160;-46
2022/05/07 08:16:42;;;;;;;30.85;24.98;;;18.90;99.90;;;;;;5095751;28;20043;-48
2022/05/07 08:19:08;;;;;;;33.05;27.80;;;17.00;99.90;;;;;;5093615;28;20444;-47
2022/05/07 08:21:34;;;;;;;34.15;27.38;;;16.80;99.90;;;;;;5094405;28;20439;-47
2022/05/07 08:24:00;;;;;;;40.65;28.30;;;16.80;99.90;;;;;;5093983;28;20040;-46
2022/05/07 08:26:27;;;;;;;34.00;28.60;;;17.00;99.90;;;;;;5092905;27;20130;-46
2022/05/07 08:28:53;;;;;;;41.42;29.98;;;16.30;99.90;;;;;;5093920;28;20075;-47
2022/05/07 08:31:23;;;;;;;36.40;30.33;;;16.20;99.90;;;;;;5093224;28;20481;-46
2022/05/07 08:33:51;;;;;;;38.38;30.95;;;16.30;99.90;;;;;;5091863;28;20040;-48
2022/05/07 08:36:17;;;;;;;46.75;33.92;;;16.30;99.90;;;;;;5093380;28;20035;-43
2022/05/07 08:38:43;;;;;;;43.55;31.38;;;17.20;99.90;;;;;;5092813;28;21605;-45
2022/05/07 08:41:10;;;;;;;43.78;34.60;;;16.20;99.90;;;;;;5093592;28;20043;-44
2022/05/07 08:43:38;;;;;;;43.47;32.55;;;16.50;99.90;;;;;;5093207;28;20043;-48
2022/05/07 08:46:22;;;;;;;46.75;36.40;;;17.70;99.90;;;;;;5094241;28;20080;-48
2022/05/07 08:48:50;;;;;;;46.33;34.45;;;17.10;99.90;;;;;;5093114;28;20090;-46
2022/05/07 08:51:18;;;;;;;52.08;37.30;;;15.70;99.90;;;;;;5093745;28;20066;-47
2022/05/07 08:53:44;;;;;;;49.88;38.92;;;17.30;99.90;;;;;;5094827;28;20044;-46
2022/05/07 08:56:12;;;;;;;51.08;37.38;;;15.80;99.90;;;;;;5093162;28;20040;-47
2022/05/07 08:58:38;;;;;;;53.53;37.90;;;18.00;99.90;;;;;;5090896;28;20540;-45
2022/05/07 09:01:05;;;;;;;44.20;34.72;;;15.90;99.90;;;;;;5093684;28;20071;-44
2022/05/07 09:03:39;;;;;;;46.80;34.03;;;16.00;99.90;;;;;;5094380;28;20035;-45
2022/05/07 09:06:18;;;;;;;38.38;28.48;;;17.80;99.90;;;;;;5093494;28;20044;-44
2022/05/07 09:08:46;;;;;;;41.67;32.05;;;15.90;99.90;;;;;;5093427;28;20036;-44
2022/05/07 09:11:15;;;;;;;38.03;29.67;;;16.10;99.90;;;;;;5092548;28;20035;-45
2022/05/07 09:13:41;;;;;;;38.20;31.08;;;16.00;99.90;;;;;;5092955;28;20516;-44
2022/05/07 09:16:08;;;;;;;41.13;30.95;;;16.60;99.90;;;;;;5094784;28;20521;-44
2022/05/07 09:18:36;;;;;;;39.45;30.70;;;16.40;99.90;;;;;;5093372;28;20040;-45
2022/05/07 09:21:18;;;;;;;37.90;30.20;;;17.50;99.90;;;;;;5092668;28;20031;-46
2022/05/07 09:23:59;;;;;;;41.00;31.27;;;16.60;99.90;;;;;;5091613;28;20038;-46
2022/05/07 09:26:27;;;;;;;44.67;32.80;;;16.90;99.90;;;;;;5091748;28;20036;-47
2022/05/07 09:28:54;;;;;;;40.15;30.60;;;16.90;99.90;;;;;;5093349;28;20039;-47
2022/05/07 09:31:26;;;;;;;44.50;33.67;;;17.00;99.90;;;;;;5091426;28;20048;-44
2022/05/07 09:33:52;;;;;;;43.88;32.65;;;17.10;99.90;;;;;;5092007;28;20074;-48
2022/05/07 09:36:19;;;;;;;52.05;33.90;;;17.20;99.90;;;;;;5091073;28;20093;-45
2022/05/07 09:38:48;;;;;;;43.25;34.10;;;17.30;99.90;;;;;;5092903;28;20043;-44
2022/05/07 09:41:21;;;;;;;42.83;35.17;;;16.40;99.90;;;;;;5093789;28;20047;-43
2022/05/07 09:43:50;;;;;;;46.17;32.58;;;18.30;99.90;;;;;;5092586;28;20081;-48
2022/05/07 09:46:17;;;;;;;48.40;35.08;;;17.10;99.90;;;;;;5092891;28;20115;-43
2022/05/07 09:48:45;;;;;;;48.67;34.50;;;16.90;99.90;;;;;;5091955;28;20055;-46
2022/05/07 09:51:11;;;;;;;45.90;32.25;;;18.80;99.90;;;;;;5092187;28;20039;-48
2022/05/07 09:59:10;;;;;;;41.38;31.38;;;17.10;99.90;;;;;;5092918;28;20101;-43
2022/05/07 10:02:17;;;;;;;42.30;30.77;;;17.10;99.90;;;;;;5092770;28;20126;-45
2022/05/07 10:04:54;;;;;;;39.97;30.48;;;17.50;99.90;;;;;;5046836;28;20049;-47
2022/05/07 10:07:29;;;;;;;39.42;30.17;;;17.70;99.90;;;;;;5046991;28;20052;-49
2022/05/07 10:09:58;;;;;;;39.13;31.02;;;17.30;99.90;;;;;;5049005;28;20525;-44
2022/05/07 10:12:25;;;;;;;38.20;30.92;;;17.80;99.90;;;;;;5045446;28;20099;-44
2022/05/07 10:14:50;;;;;;;43.97;32.53;;;15.90;99.90;;;;;;5048888;28;20055;-44
2022/05/07 10:17:21;;;;;;;36.92;28.67;;;17.20;99.90;;;;;;5017030;28;20036;-43
2022/05/07 10:19:50;;;;;;;40.15;30.45;;;17.40;99.90;;;;;;5044691;28;20041;-45
2022/05/07 10:22:24;;;;;;;40.95;30.13;;;17.00;99.90;;;;;;5052939;28;20053;-44
2022/05/07 10:25:11;;;;;;;43.20;32.35;;;17.10;99.90;;;;;;5050714;28;20119;-43
2022/05/07 10:27:42;;;;;;;44.40;29.40;;;16.70;99.90;;;;;;5050080;28;20127;-45
2022/05/07 10:30:21;;;;;;;49.58;35.83;;;16.70;99.90;;;;;;5052277;28;20983;-45
2022/05/07 10:33:03;;;;;;;57.83;42.00;;;16.70;99.90;;;;;;5049440;28;20048;-45
2022/05/07 10:35:58;;;;;;;61.30;43.92;;;16.40;99.90;;;;;;5049337;28;20056;-45
2022/05/07 10:38:29;;;;;;;59.55;42.40;;;16.30;99.90;;;;;;5047010;28;20044;-46
2022/05/07 10:41:04;;;;;;;58.80;42.63;;;16.40;99.90;;;;;;5061925;28;20048;-47
2022/05/07 10:43:36;;;;;;;61.95;43.90;;;16.60;99.90;;;;;;5095111;28;20040;-45
2022/05/07 10:46:03;;;;;;;60.88;43.28;;;16.30;99.90;;;;;;5096502;28;20044;-43
2022/05/07 10:48:30;;;;;;;57.70;38.90;;;16.20;99.90;;;;;;5095749;28;20059;-43
2022/05/07 10:51:00;;;;;;;58.83;39.42;;;16.40;99.90;;;;;;5095848;28;20599;-45
2022/05/07 10:53:37;;;;;;;56.15;40.35;;;16.40;99.90;;;;;;5096273;28;20051;-46
2022/05/07 10:56:03;;;;;;;56.03;39.88;;;16.70;99.90;;;;;;5095748;28;20035;-48
2022/05/07 10:58:29;;;;;;;51.90;38.85;;;16.60;99.90;;;;;;5095827;28;20042;-46
2022/05/07 11:00:59;;;;;;;54.10;39.08;;;16.60;99.90;;;;;;5095067;28;20047;-48
2022/05/07 11:03:26;;;;;;;55.90;38.80;;;16.20;99.90;;;;;;5093407;28;20101;-45
2022/05/07 11:06:00;;;;;;;54.38;38.00;;;16.20;99.90;;;;;;5093919;28;20196;-45
2022/05/07 11:08:30;;;;;;;53.95;37.80;;;16.20;99.90;;;;;;5094728;28;20400;-48
2022/05/07 11:11:08;;;;;;;49.53;34.33;;;17.10;99.90;;;;;;5095224;28;20044;-45
2022/05/07 11:13:54;;;;;;;49.00;34.22;;;16.10;99.90;;;;;;5088807;28;20050;-46
2022/05/07 11:16:21;;;;;;;41.20;31.60;;;15.90;99.90;;;;;;5094827;28;20082;-46
2022/05/07 11:18:50;;;;;;;42.00;30.17;;;15.90;99.90;;;;;;5094971;28;20142;-49
2022/05/07 11:21:17;;;;;;;40.53;29.02;;;18.40;99.90;;;;;;5096273;28;20046;-49
2022/05/07 11:23:44;;;;;;;39.95;26.98;;;17.10;99.90;;;;;;5094889;28;20109;-50
2022/05/07 11:26:20;;;;;;;40.47;28.60;;;18.10;99.90;;;;;;5095075;28;20130;-50
2022/05/07 11:28:47;;;;;;;34.03;23.77;;;16.70;99.90;;;;;;5092840;28;20044;-48
2022/05/07 11:31:24;;;;;;;30.73;23.38;;;19.20;99.90;;;;;;5093369;28;20031;-49
2022/05/07 11:34:06;;;;;;;30.30;23.23;;;17.00;99.90;;;;;;5093205;28;20047;-45
2022/05/07 11:36:33;;;;;;;25.27;18.73;;;16.70;99.90;;;;;;5093099;28;20043;-45
2022/05/07 11:39:01;;;;;;;21.83;15.45;;;16.90;99.90;;;;;;5093440;28;20456;-45
2022/05/07 11:41:27;;;;;;;16.98;11.27;;;16.60;99.90;;;;;;5076676;28;20035;-45
2022/05/07 11:46:58;;;;;;;15.85;10.00;;;17.20;99.90;;;;;;5092466;28;20581;-48
2022/05/07 11:49:33;;;;;;;15.82;9.85;;;17.50;99.90;;;;;;5093934;28;20120;-46
2022/05/07 11:52:13;;;;;;;16.58;10.77;;;17.70;99.90;;;;;;5094342;28;20291;-45
2022/05/07 11:54:52;;;;;;;16.60;11.57;;;18.50;99.90;;;;;;5093489;28;20329;-48
2022/05/07 11:57:29;;;;;;;15.02;11.50;;;17.80;99.90;;;;;;5094612;28;20036;-44
2022/05/07 11:59:57;;;;;;;17.33;11.10;;;17.90;99.90;;;;;;5094063;28;20043;-46
2022/05/07 12:02:23;;;;;;;15.57;11.23;;;20.10;99.90;;;;;;5094317;28;20496;-48
2022/05/07 12:05:00;;;;;;;14.90;10.85;;;18.00;99.90;;;;;;5092894;28;20523;-47
2022/05/07 12:07:25;;;;;;;14.07;10.85;;;18.30;99.90;;;;;;5093515;28;20453;-47
2022/05/07 12:09:51;;;;;;;19.02;11.60;;;18.00;99.90;;;;;;5093837;28;20093;-45
2022/05/07 12:12:19;;;;;;;14.65;11.25;;;19.80;99.90;;;;;;5093786;28;20345;-45
2022/05/07 12:14:44;;;;;;;16.42;11.80;;;17.90;99.90;;;;;;5094501;28;20035;-48
2022/05/07 12:19:54;;;;;;;17.63;13.88;;;20.00;99.90;;;;;;5093202;28;20044;-45
2022/05/07 12:30:36;;;;;;;17.83;11.85;;;17.30;99.90;;;;;;5093826;28;20044;-48
2022/05/07 12:33:01;;;;;;;18.08;12.30;;;17.70;99.90;;;;;;5093294;28;20042;-47
2022/05/07 12:35:27;;;;;;;15.27;10.93;;;19.80;99.90;;;;;;5093433;28;20180;-47
2022/05/07 12:37:56;;;;;;;18.10;10.85;;;17.70;99.90;;;;;;5095167;28;20055;-48
2022/05/07 12:40:22;;;;;;;14.93;10.95;;;17.90;99.90;;;;;;5093596;27;20039;-46
2022/05/07 12:42:48;;;;;;;14.93;11.27;;;17.90;99.90;;;;;;5093045;28;20409;-45
2022/05/07 12:45:14;;;;;;;19.58;12.05;;;18.00;99.90;;;;;;5094018;28;20048;-47
2022/05/07 12:47:40;;;;;;;15.38;11.13;;;18.90;99.90;;;;;;5091616;28;20704;-48
2022/05/07 12:50:07;;;;;;;20.35;13.85;;;19.10;99.90;;;;;;5093430;28;20047;-44
2022/05/07 12:52:34;;;;;;;19.60;13.48;;;18.00;99.90;;;;;;5094332;28;20047;-48
2022/05/07 12:55:00;;;;;;;20.25;15.52;;;18.60;99.90;;;;;;5093484;28;20061;-47
2022/05/07 12:57:26;;;;;;;24.50;16.40;;;17.60;99.90;;;;;;5094377;28;20028;-47
2022/05/07 12:59:57;;;;;;;20.85;15.57;;;17.40;99.90;;;;;;5093778;28;20040;-48
2022/05/07 13:02:23;;;;;;;19.80;15.52;;;17.50;99.90;;;;;;5093031;28;20119;-48
2022/05/07 13:04:49;;;;;;;17.88;14.30;;;17.30;99.90;;;;;;5088439;28;20353;-48